Time;durP1;ratioP1;P1;durP2;ratioP2;P2;SDS_P1;SDS_P2;PMS_P1;PMS_P2;Temp;Humidity;BMP_temperature;BMP_pressure;BME280_temperature;BME280_humidity;BME280_pressure;Samples;Min_cycle;Max_cycle;Signal;HPM_P1;HPM_P2
2022/12/11 00:02:05;;;;;;;54.67;19.55;;;;;;;;;;5057281;28;20329;-80
2022/12/11 00:04:31;;;;;;;52.92;18.95;;;;;;;;;;5074715;28;20052;-80
2022/12/11 00:06:58;;;;;;;49.05;18.80;;;;;;;;;;5075411;28;20474;-81
2022/12/11 00:09:24;;;;;;;55.22;20.98;;;;;;;;;;5076456;28;20044;-80
2022/12/11 00:11:51;;;;;;;60.70;21.08;;;;;;;;;;5073593;28;20118;-80
2022/12/11 00:14:17;;;;;;;50.83;20.58;;;;;;;;;;5071009;28;20045;-81
2022/12/11 00:16:46;;;;;;;52.67;20.95;;;;;;;;;;5068429;28;20086;-80
2022/12/11 00:19:12;;;;;;;56.00;21.70;;;;;;;;;;5053621;28;20136;-79
2022/12/11 00:21:38;;;;;;;56.10;21.85;;;;;;;;;;5053718;28;20449;-81
2022/12/11 00:24:05;;;;;;;53.83;20.15;;;;;;;;;;5049782;28;20492;-80
2022/12/11 00:26:32;;;;;;;59.00;20.65;;;;;;;;;;5054514;28;20052;-80
2022/12/11 00:28:58;;;;;;;56.95;21.67;;;;;;;;;;5073720;28;20055;-82
2022/12/11 00:31:24;;;;;;;58.33;21.65;;;;;;;;;;5071629;28;20062;-81
2022/12/11 00:33:51;;;;;;;49.85;20.45;;;;;;;;;;5067146;28;20413;-81
2022/12/11 00:36:19;;;;;;;51.00;20.55;;;;;;;;;;5041857;28;20122;-81
2022/12/11 00:38:45;;;;;;;50.33;19.98;;;;;;;;;;5052162;28;20461;-79
2022/12/11 00:41:12;;;;;;;55.55;21.48;;;;;;;;;;5053218;28;20124;-80
2022/12/11 00:43:38;;;;;;;58.72;22.35;;;;;;;;;;5050207;28;20049;-80
2022/12/11 00:46:05;;;;;;;52.17;20.50;;;;;;;;;;5051928;28;20055;-80
2022/12/11 00:48:31;;;;;;;56.10;21.63;;;;;;;;;;5057575;28;20112;-80
2022/12/11 00:50:58;;;;;;;53.88;21.13;;;;;;;;;;5058197;28;20088;-80
2022/12/11 00:53:25;;;;;;;55.67;21.45;;;;;;;;;;5053845;28;20068;-80
2022/12/11 00:55:51;;;;;;;63.72;23.35;;;;;;;;;;5054254;28;20432;-81
2022/12/11 00:58:18;;;;;;;56.63;22.48;;;;;;;;;;5052014;28;20060;-80
2022/12/11 01:00:44;;;;;;;60.15;22.70;;;;;;;;;;5052406;28;20045;-80
2022/12/11 01:03:12;;;;;;;56.00;22.15;;;;;;;;;;5053291;28;20056;-81
2022/12/11 01:05:38;;;;;;;54.20;20.10;;;;;;;;;;5069264;28;20720;-80
2022/12/11 01:08:06;;;;;;;60.90;21.42;;;;;;;;;;5055240;28;20413;-80
2022/12/11 01:10:33;;;;;;;60.13;22.35;;;;;;;;;;5054301;28;20083;-80
2022/12/11 01:13:01;;;;;;;56.67;22.05;;;;;;;;;;5052794;28;20045;-80
2022/12/11 01:15:29;;;;;;;50.83;19.58;;;;;;;;;;5062317;28;20072;-81
2022/12/11 01:17:55;;;;;;;48.28;19.02;;;;;;;;;;5070960;28;20032;-81
2022/12/11 01:20:23;;;;;;;49.40;19.75;;;;;;;;;;5059268;28;20064;-80
2022/12/11 01:22:54;;;;;;;52.67;19.75;;;;;;;;;;5058920;28;20045;-80
2022/12/11 01:25:20;;;;;;;52.72;19.67;;;;;;;;;;5057291;28;20096;-80
2022/12/11 01:27:49;;;;;;;50.03;19.80;;;;;;;;;;5061968;28;20137;-81
2022/12/11 01:30:15;;;;;;;48.40;19.27;;;;;;;;;;5064593;28;20048;-82
2022/12/11 01:32:44;;;;;;;46.72;17.70;;;;;;;;;;5070588;28;20072;-82
2022/12/11 01:35:10;;;;;;;46.08;19.17;;;;;;;;;;5062819;28;20087;-81
2022/12/11 01:37:38;;;;;;;46.78;19.75;;;;;;;;;;5048219;28;20033;-80
2022/12/11 01:40:05;;;;;;;51.28;20.77;;;;;;;;;;5053014;28;20056;-80
2022/12/11 01:42:31;;;;;;;48.78;18.42;;;;;;;;;;5053291;28;20453;-81
2022/12/11 01:45:16;;;;;;;49.90;19.40;;;;;;;;;;5053254;28;20045;-79
2022/12/11 01:47:42;;;;;;;49.30;19.17;;;;;;;;;;5036332;28;20053;-81
2022/12/11 01:50:10;;;;;;;50.65;19.52;;;;;;;;;;5055461;28;20088;-80
2022/12/11 01:52:36;;;;;;;51.33;19.73;;;;;;;;;;5039370;28;20056;-82
2022/12/11 01:55:03;;;;;;;56.53;19.98;;;;;;;;;;5055798;28;20051;-80
2022/12/11 01:57:29;;;;;;;55.10;19.90;;;;;;;;;;5054564;28;20049;-81
2022/12/11 01:59:56;;;;;;;50.10;21.05;;;;;;;;;;5054470;28;20052;-81
2022/12/11 02:02:28;;;;;;;49.55;18.55;;;;;;;;;;5056999;28;20112;-81
2022/12/11 02:04:54;;;;;;;52.75;20.13;;;;;;;;;;5052889;28;20121;-81
2022/12/11 02:07:21;;;;;;;48.38;19.75;;;;;;;;;;5053301;28;20084;-81
2022/12/11 02:09:47;;;;;;;54.03;19.75;;;;;;;;;;5053416;28;20049;-81
2022/12/11 02:12:32;;;;;;;50.10;18.45;;;;;;;;;;5052921;28;20454;-78
2022/12/11 02:15:22;;;;;;;38.28;14.05;;;;;;;;;;5053206;28;20049;-81
2022/12/11 02:17:59;;;;;;;46.00;17.92;;;;;;;;;;5045383;28;20108;-81
2022/12/11 02:20:35;;;;;;;49.70;17.65;;;;;;;;;;5055085;28;20124;-80
2022/12/11 02:23:18;;;;;;;48.88;19.45;;;;;;;;;;5052791;28;20490;-79
2022/12/11 02:25:49;;;;;;;47.83;18.08;;;;;;;;;;5044865;28;20068;-81
2022/12/11 02:28:35;;;;;;;41.80;17.70;;;;;;;;;;5053255;28;20485;-81
2022/12/11 02:31:09;;;;;;;47.67;18.75;;;;;;;;;;5054165;28;20053;-81
2022/12/11 02:33:41;;;;;;;44.13;18.10;;;;;;;;;;5054581;28;20053;-82
2022/12/11 02:36:08;;;;;;;43.95;17.90;;;;;;;;;;5065056;28;20051;-82
2022/12/11 02:38:38;;;;;;;43.67;17.40;;;;;;;;;;5074080;28;20053;-82
2022/12/11 02:41:06;;;;;;;40.53;17.00;;;;;;;;;;5057020;28;20108;-81
2022/12/11 02:43:33;;;;;;;39.67;16.75;;;;;;;;;;5076074;28;20063;-82
2022/12/11 02:46:01;;;;;;;42.65;17.85;;;;;;;;;;5077426;28;20155;-81
2022/12/11 02:48:29;;;;;;;46.05;18.85;;;;;;;;;;5087314;28;20064;-82
2022/12/11 02:50:56;;;;;;;40.67;17.20;;;;;;;;;;5066583;28;20056;-82
2022/12/11 02:53:27;;;;;;;48.03;19.02;;;;;;;;;;5082988;28;20055;-82
2022/12/11 02:56:00;;;;;;;47.35;18.30;;;;;;;;;;5083002;28;20053;-82
2022/12/11 02:58:29;;;;;;;49.65;18.45;;;;;;;;;;5079329;28;20049;-82
2022/12/11 03:00:56;;;;;;;52.17;19.88;;;;;;;;;;5079992;28;20075;-81
2022/12/11 03:03:22;;;;;;;52.35;20.10;;;;;;;;;;5078180;28;20060;-80
2022/12/11 03:05:49;;;;;;;44.22;18.92;;;;;;;;;;5082377;28;20047;-81
2022/12/11 03:08:17;;;;;;;50.20;19.15;;;;;;;;;;5084621;28;20163;-78
2022/12/11 03:10:44;;;;;;;51.17;18.85;;;;;;;;;;5052473;28;20489;-80
2022/12/11 03:13:12;;;;;;;49.70;19.63;;;;;;;;;;5075491;28;20096;-81
2022/12/11 03:15:38;;;;;;;48.10;19.30;;;;;;;;;;5076270;28;20049;-81
2022/12/11 03:18:05;;;;;;;46.95;18.60;;;;;;;;;;5076992;28;20053;-80
2022/12/11 03:20:34;;;;;;;44.78;19.15;;;;;;;;;;5076889;28;20056;-79
2022/12/11 03:23:06;;;;;;;50.88;19.02;;;;;;;;;;5075967;28;20044;-80
2022/12/11 03:25:56;;;;;;;52.85;19.48;;;;;;;;;;5072388;28;20055;-80
2022/12/11 03:28:29;;;;;;;51.47;18.63;;;;;;;;;;5054904;28;20424;-80
2022/12/11 03:30:55;;;;;;;46.75;18.98;;;;;;;;;;5056552;28;20128;-81
2022/12/11 03:33:24;;;;;;;44.50;17.92;;;;;;;;;;5055399;28;20103;-80
2022/12/11 03:35:52;;;;;;;53.45;19.45;;;;;;;;;;5052061;28;20064;-80
2022/12/11 03:38:41;;;;;;;45.30;18.50;;;;;;;;;;5055902;28;20056;-81
2022/12/11 03:41:08;;;;;;;48.22;17.98;;;;;;;;;;5075864;28;20044;-80
2022/12/11 03:43:36;;;;;;;44.45;19.23;;;;;;;;;;5074359;28;20140;-81
2022/12/11 03:46:04;;;;;;;41.03;16.67;;;;;;;;;;5075648;28;20044;-81
2022/12/11 03:48:32;;;;;;;46.67;18.73;;;;;;;;;;5076397;28;20045;-81
2022/12/11 03:51:01;;;;;;;45.80;16.90;;;;;;;;;;5076380;28;20058;-81
2022/12/11 03:53:27;;;;;;;45.75;17.88;;;;;;;;;;5074876;28;20049;-81
2022/12/11 03:55:55;;;;;;;48.25;18.00;;;;;;;;;;5079428;28;20056;-81
2022/12/11 03:58:21;;;;;;;44.80;18.30;;;;;;;;;;5074984;28;20798;-81
2022/12/11 04:00:48;;;;;;;44.40;17.42;;;;;;;;;;5075278;28;20497;-81
2022/12/11 04:03:17;;;;;;;44.40;17.88;;;;;;;;;;5074586;28;20136;-81
2022/12/11 04:05:48;;;;;;;42.83;17.65;;;;;;;;;;5068784;28;20049;-81
2022/12/11 04:08:15;;;;;;;45.28;18.13;;;;;;;;;;5077945;28;20059;-80
2022/12/11 04:10:42;;;;;;;41.80;16.50;;;;;;;;;;5078111;28;20048;-82
2022/12/11 04:13:09;;;;;;;48.33;17.77;;;;;;;;;;5076520;28;20167;-81
2022/12/11 04:15:36;;;;;;;45.47;17.10;;;;;;;;;;5076644;28;20074;-80
2022/12/11 04:26:19;;;;;;;55.35;18.25;;;;;;;;;;5084453;28;20120;-81
2022/12/11 04:28:46;;;;;;;52.85;19.35;;;;;;;;;;5089971;28;20079;-81
2022/12/11 04:31:14;;;;;;;47.50;18.15;;;;;;;;;;5093325;28;20048;-81
2022/12/11 04:33:44;;;;;;;52.53;18.52;;;;;;;;;;5092093;28;20041;-79
2022/12/11 04:36:11;;;;;;;44.70;17.15;;;;;;;;;;5085597;28;20052;-80
2022/12/11 04:38:38;;;;;;;54.28;18.95;;;;;;;;;;5075460;28;20124;-81
2022/12/11 04:41:09;;;;;;;62.63;21.38;;;;;;;;;;5076617;28;20045;-82
2022/12/11 04:43:35;;;;;;;40.97;15.65;;;;;;;;;;5092105;28;20062;-80
2022/12/11 04:46:05;;;;;;;62.75;21.45;;;;;;;;;;5093290;28;20088;-82
2022/12/11 04:48:32;;;;;;;44.15;16.23;;;;;;;;;;5092393;28;20048;-82
2022/12/11 04:50:58;;;;;;;55.42;19.65;;;;;;;;;;5094245;28;20100;-81
2022/12/11 04:53:25;;;;;;;48.22;18.00;;;;;;;;;;5072070;28;20151;-82
2022/12/11 04:55:51;;;;;;;60.60;20.55;;;;;;;;;;5076151;28;20059;-81
2022/12/11 04:58:17;;;;;;;61.03;19.95;;;;;;;;;;5094177;28;20063;-81
2022/12/11 05:00:44;;;;;;;48.17;17.63;;;;;;;;;;5083372;28;20139;-80
2022/12/11 05:03:10;;;;;;;43.22;15.75;;;;;;;;;;5074371;28;20052;-80
2022/12/11 05:05:37;;;;;;;56.78;19.20;;;;;;;;;;5073861;28;20052;-80
2022/12/11 05:08:03;;;;;;;49.95;17.65;;;;;;;;;;5074886;28;20498;-80
2022/12/11 05:10:30;;;;;;;47.08;16.83;;;;;;;;;;5073901;28;20059;-79
2022/12/11 05:13:02;;;;;;;46.85;16.70;;;;;;;;;;5073350;28;20052;-80
2022/12/11 05:15:28;;;;;;;41.67;15.10;;;;;;;;;;5072146;28;20060;-80
2022/12/11 05:17:54;;;;;;;43.75;15.15;;;;;;;;;;5071741;28;20120;-81
2022/12/11 05:20:21;;;;;;;46.05;14.02;;;;;;;;;;5073255;28;20554;-80
2022/12/11 05:22:47;;;;;;;45.92;15.18;;;;;;;;;;5073167;28;20516;-80
2022/12/11 05:25:14;;;;;;;42.85;15.52;;;;;;;;;;5056352;28;20098;-81
2022/12/11 05:27:40;;;;;;;45.65;15.48;;;;;;;;;;5074334;28;20102;-79
2022/12/11 05:30:07;;;;;;;42.42;15.75;;;;;;;;;;5077135;28;20052;-81
2022/12/11 05:32:35;;;;;;;42.97;14.40;;;;;;;;;;5075889;28;20048;-81
2022/12/11 05:35:02;;;;;;;46.28;16.17;;;;;;;;;;5075402;28;20075;-79
2022/12/11 05:37:29;;;;;;;39.67;15.00;;;;;;;;;;5077671;28;20139;-83
2022/12/11 05:39:55;;;;;;;34.83;14.55;;;;;;;;;;5078652;28;20098;-82
2022/12/11 05:42:21;;;;;;;36.72;14.23;;;;;;;;;;5091359;28;20066;-82
2022/12/11 05:44:53;;;;;;;32.22;12.57;;;;;;;;;;5083615;28;20092;-81
2022/12/11 05:47:20;;;;;;;41.70;15.25;;;;;;;;;;5055017;28;20497;-81
2022/12/11 05:49:46;;;;;;;25.98;10.93;;;;;;;;;;5056454;28;20057;-81
2022/12/11 05:52:13;;;;;;;30.90;11.85;;;;;;;;;;5058304;28;20049;-79
2022/12/11 05:54:39;;;;;;;26.05;11.55;;;;;;;;;;5054636;28;20049;-80
2022/12/11 05:57:06;;;;;;;36.05;13.50;;;;;;;;;;5054244;28;20052;-80
2022/12/11 05:59:32;;;;;;;36.10;13.02;;;;;;;;;;5054362;28;20049;-80
2022/12/11 06:01:58;;;;;;;31.30;12.73;;;;;;;;;;5052667;28;20045;-80
2022/12/11 06:04:25;;;;;;;27.58;11.88;;;;;;;;;;5052836;28;20071;-80
2022/12/11 06:06:54;;;;;;;29.10;12.57;;;;;;;;;;5054854;28;20053;-79
2022/12/11 06:09:21;;;;;;;30.75;12.55;;;;;;;;;;5052095;28;20057;-78
2022/12/11 06:11:47;;;;;;;34.10;13.45;;;;;;;;;;5053597;28;20063;-81
2022/12/11 06:14:13;;;;;;;29.77;12.57;;;;;;;;;;5055801;28;20049;-81
2022/12/11 06:16:40;;;;;;;30.73;12.00;;;;;;;;;;5057039;28;20121;-82
2022/12/11 06:19:11;;;;;;;27.75;11.60;;;;;;;;;;5056867;28;20048;-81
2022/12/11 06:21:38;;;;;;;35.17;13.98;;;;;;;;;;5058598;28;20405;-81
2022/12/11 06:24:04;;;;;;;29.92;11.80;;;;;;;;;;5072086;28;20080;-82
2022/12/11 06:26:31;;;;;;;29.65;11.50;;;;;;;;;;5087398;28;20056;-81
2022/12/11 06:28:57;;;;;;;30.40;12.13;;;;;;;;;;5091621;28;20055;-83
2022/12/11 06:31:24;;;;;;;28.02;11.95;;;;;;;;;;5090780;28;20045;-82
2022/12/11 06:33:50;;;;;;;28.67;11.00;;;;;;;;;;5091446;28;20100;-82
2022/12/11 06:36:18;;;;;;;29.10;11.30;;;;;;;;;;5069783;28;20128;-81
2022/12/11 06:38:44;;;;;;;28.63;12.20;;;;;;;;;;5059121;28;20063;-80
2022/12/11 06:41:11;;;;;;;27.92;12.25;;;;;;;;;;5052414;28;20052;-80
2022/12/11 06:43:39;;;;;;;26.65;11.43;;;;;;;;;;5049457;28;20088;-80
2022/12/11 06:46:06;;;;;;;25.35;10.77;;;;;;;;;;5069691;28;20064;-78
2022/12/11 06:48:32;;;;;;;29.90;12.10;;;;;;;;;;5056785;28;20135;-79
2022/12/11 06:50:59;;;;;;;27.70;10.77;;;;;;;;;;5055525;28;20048;-81
2022/12/11 06:53:25;;;;;;;24.13;10.52;;;;;;;;;;5066872;28;20132;-81
2022/12/11 06:55:52;;;;;;;27.13;11.40;;;;;;;;;;5080324;28;20048;-82
2022/12/11 06:58:18;;;;;;;28.88;11.27;;;;;;;;;;5078132;28;20056;-81
2022/12/11 07:00:45;;;;;;;25.55;10.70;;;;;;;;;;5069319;28;20308;-80
2022/12/11 07:03:12;;;;;;;28.40;11.70;;;;;;;;;;5067173;28;20057;-82
2022/12/11 07:05:38;;;;;;;31.33;11.70;;;;;;;;;;5070411;28;20057;-82
2022/12/11 07:08:06;;;;;;;29.95;12.45;;;;;;;;;;5073386;28;20414;-83
2022/12/11 07:10:32;;;;;;;31.55;13.82;;;;;;;;;;5076395;28;20052;-83
2022/12/11 07:12:59;;;;;;;30.00;11.93;;;;;;;;;;5044185;28;20053;-81
2022/12/11 07:15:25;;;;;;;30.83;13.07;;;;;;;;;;5057465;28;20522;-82
2022/12/11 07:17:52;;;;;;;34.50;13.35;;;;;;;;;;5037218;28;20049;-83
2022/12/11 07:20:18;;;;;;;33.45;13.10;;;;;;;;;;5053466;28;20304;-81
2022/12/11 07:22:44;;;;;;;51.63;15.85;;;;;;;;;;5053279;28;20051;-81
2022/12/11 07:25:12;;;;;;;99.35;21.42;;;;;;;;;;5056757;28;20048;-82
2022/12/11 07:27:40;;;;;;;38.20;13.77;;;;;;;;;;5059924;28;20064;-81
2022/12/11 07:30:07;;;;;;;74.10;17.58;;;;;;;;;;5052093;28;20060;-81
2022/12/11 07:32:33;;;;;;;87.45;19.52;;;;;;;;;;5053933;28;20048;-81
2022/12/11 07:34:59;;;;;;;36.83;12.75;;;;;;;;;;5051333;28;20068;-81
2022/12/11 07:37:26;;;;;;;33.22;12.40;;;;;;;;;;5050666;28;20064;-81
2022/12/11 07:39:53;;;;;;;50.58;16.40;;;;;;;;;;5030721;28;20048;-82
2022/12/11 07:42:19;;;;;;;38.75;14.88;;;;;;;;;;5028063;28;20060;-78
2022/12/11 07:44:45;;;;;;;27.92;12.20;;;;;;;;;;5046483;28;20060;-80
2022/12/11 07:47:12;;;;;;;42.58;15.65;;;;;;;;;;5045600;28;20487;-78
2022/12/11 07:49:38;;;;;;;73.45;24.58;;;;;;;;;;5044359;28;20053;-79
2022/12/11 07:52:04;;;;;;;100.53;33.47;;;;;;;;;;5044650;28;20065;-81
2022/12/11 07:54:33;;;;;;;65.32;24.02;;;;;;;;;;5041403;28;20056;-79
2022/12/11 07:56:59;;;;;;;40.45;16.77;;;;;;;;;;5045736;28;20049;-78
2022/12/11 07:59:26;;;;;;;41.80;17.52;;;;;;;;;;5048461;28;20045;-79
2022/12/11 08:01:52;;;;;;;49.25;19.40;;;;;;;;;;5051252;28;20406;-81
2022/12/11 08:04:19;;;;;;;30.20;12.45;;;;;;;;;;5052324;28;20041;-81
2022/12/11 08:06:46;;;;;;;28.05;11.88;;;;;;;;;;5052115;28;20053;-80
2022/12/11 08:09:15;;;;;;;32.20;13.70;;;;;;;;;;5048786;28;20049;-80
2022/12/11 08:11:50;;;;;;;27.38;11.40;;;;;;;;;;5054054;28;20113;-78
2022/12/11 08:14:16;;;;;;;35.50;12.93;;;;;;;;;;5050442;28;20120;-81
2022/12/11 08:16:43;;;;;;;27.95;12.63;;;;;;;;;;5053525;28;20054;-80
2022/12/11 08:19:10;;;;;;;30.45;12.88;;;;;;;;;;5057661;28;20063;-80
2022/12/11 08:21:37;;;;;;;29.10;12.43;;;;;;;;;;5071265;28;20064;-80
2022/12/11 08:24:03;;;;;;;27.40;11.77;;;;;;;;;;5051632;28;20055;-80
2022/12/11 08:26:30;;;;;;;27.90;12.13;;;;;;;;;;5039127;28;20200;-81
2022/12/11 08:28:57;;;;;;;26.52;11.48;;;;;;;;;;5057914;28;20656;-81
2022/12/11 08:31:24;;;;;;;25.85;11.82;;;;;;;;;;5070709;28;20048;-82
2022/12/11 08:33:50;;;;;;;28.17;12.00;;;;;;;;;;5062301;28;20040;-83
2022/12/11 08:36:18;;;;;;;30.60;12.52;;;;;;;;;;5065949;28;20044;-83
2022/12/11 08:38:48;;;;;;;26.20;11.85;;;;;;;;;;5048065;28;20079;-79
2022/12/11 08:41:16;;;;;;;27.00;11.52;;;;;;;;;;5055041;28;20048;-78
2022/12/11 08:43:43;;;;;;;25.02;11.70;;;;;;;;;;5051255;28;20049;-81
2022/12/11 08:46:09;;;;;;;27.50;11.85;;;;;;;;;;5049930;28;20056;-80
2022/12/11 08:48:36;;;;;;;25.33;11.15;;;;;;;;;;5050477;28;20103;-81
2022/12/11 08:51:04;;;;;;;27.98;11.43;;;;;;;;;;5057042;28;20421;-82
2022/12/11 08:53:31;;;;;;;28.08;11.77;;;;;;;;;;5052540;28;20052;-79
2022/12/11 08:56:05;;;;;;;27.27;11.98;;;;;;;;;;5060533;28;20079;-81
2022/12/11 08:58:32;;;;;;;27.00;11.38;;;;;;;;;;5034676;28;20559;-84
2022/12/11 09:00:58;;;;;;;26.90;11.63;;;;;;;;;;5051007;28;20056;-81
2022/12/11 09:03:25;;;;;;;28.10;12.38;;;;;;;;;;5050007;28;20052;-83
2022/12/11 09:05:51;;;;;;;27.17;12.27;;;;;;;;;;5050487;28;20168;-82
2022/12/11 09:08:18;;;;;;;24.80;11.45;;;;;;;;;;5048799;28;20051;-81
2022/12/11 09:10:44;;;;;;;27.15;11.65;;;;;;;;;;5052758;28;20610;-80
2022/12/11 09:13:10;;;;;;;24.70;11.27;;;;;;;;;;5051913;28;20162;-81
2022/12/11 09:15:39;;;;;;;28.85;12.35;;;;;;;;;;5050466;28;20078;-80
2022/12/11 09:18:05;;;;;;;25.60;11.55;;;;;;;;;;5051831;28;20060;-82
2022/12/11 09:20:32;;;;;;;30.15;12.05;;;;;;;;;;5057933;28;20045;-80
2022/12/11 09:22:59;;;;;;;26.67;11.57;;;;;;;;;;5049444;28;20755;-81
2022/12/11 09:25:26;;;;;;;27.42;12.23;;;;;;;;;;5054137;28;20055;-81
2022/12/11 09:27:52;;;;;;;29.33;12.75;;;;;;;;;;5037454;28;20593;-81
2022/12/11 09:30:19;;;;;;;30.58;12.27;;;;;;;;;;5048349;28;20052;-80
2022/12/11 09:32:45;;;;;;;28.13;12.38;;;;;;;;;;5046447;28;20135;-80
2022/12/11 09:35:11;;;;;;;27.88;13.00;;;;;;;;;;5050687;28;20060;-82
2022/12/11 09:37:38;;;;;;;28.50;12.88;;;;;;;;;;5049227;28;20452;-81
2022/12/11 09:40:05;;;;;;;29.05;13.23;;;;;;;;;;5053125;28;20049;-80
2022/12/11 09:42:51;;;;;;;28.73;13.00;;;;;;;;;;5048989;28;20040;-80
2022/12/11 09:45:18;;;;;;;30.15;13.70;;;;;;;;;;5043573;28;20059;-79
2022/12/11 09:47:48;;;;;;;35.35;13.90;;;;;;;;;;5036517;28;20052;-77
2022/12/11 09:50:21;;;;;;;30.65;13.00;;;;;;;;;;5059125;28;20496;-80
2022/12/11 09:52:53;;;;;;;30.15;13.43;;;;;;;;;;5046309;28;20064;-80
2022/12/11 09:55:24;;;;;;;28.38;12.70;;;;;;;;;;5051882;28;20060;-80
2022/12/11 09:57:59;;;;;;;32.05;14.07;;;;;;;;;;5044675;28;20057;-80
2022/12/11 10:00:25;;;;;;;;;;;;;;;;;;5025981;28;20049;-79
2022/12/11 10:03:01;;;;;;;28.50;11.98;;;;;;;;;;5034484;28;20337;-81
2022/12/11 10:05:36;;;;;;;28.05;11.65;;;;;;;;;;5045609;28;20064;-79
2022/12/11 10:08:10;;;;;;;30.87;11.60;;;;;;;;;;5050858;28;20051;-80
2022/12/11 10:10:42;;;;;;;30.10;12.75;;;;;;;;;;5051135;28;20053;-81
2022/12/11 10:13:20;;;;;;;29.65;13.07;;;;;;;;;;5054461;28;20537;-80
2022/12/11 10:15:59;;;;;;;28.92;12.43;;;;;;;;;;5057400;28;20053;-80
2022/12/11 10:18:27;;;;;;;29.95;13.32;;;;;;;;;;5064233;28;20057;-81
2022/12/11 10:20:53;;;;;;;28.08;12.27;;;;;;;;;;5040556;28;20052;-81
2022/12/11 10:23:22;;;;;;;24.98;11.68;;;;;;;;;;5056135;28;20049;-80
2022/12/11 10:25:55;;;;;;;25.80;11.98;;;;;;;;;;5050210;28;20517;-81
2022/12/11 10:28:22;;;;;;;25.63;11.07;;;;;;;;;;5050842;28;20048;-81
2022/12/11 10:31:00;;;;;;;31.92;13.18;;;;;;;;;;5053885;28;20052;-80
2022/12/11 10:33:59;;;;;;;34.08;14.95;;;;;;;;;;5058156;28;20563;-81
2022/12/11 10:36:29;;;;;;;42.53;16.48;;;;;;;;;;5038480;28;20458;-80
2022/12/11 10:38:56;;;;;;;40.13;17.25;;;;;;;;;;5058554;28;20059;-80
2022/12/11 10:41:26;;;;;;;35.47;15.88;;;;;;;;;;5059733;28;20045;-80
2022/12/11 10:43:53;;;;;;;29.63;12.45;;;;;;;;;;5053674;28;20040;-80
2022/12/11 10:46:19;;;;;;;32.15;13.27;;;;;;;;;;5048738;28;20053;-79
2022/12/11 10:48:52;;;;;;;34.70;13.52;;;;;;;;;;5051753;28;20049;-81
2022/12/11 10:51:20;;;;;;;32.47;14.63;;;;;;;;;;5050296;28;20148;-80
2022/12/11 10:53:50;;;;;;;35.70;15.30;;;;;;;;;;5046732;28;20048;-80
2022/12/11 10:56:23;;;;;;;33.30;12.85;;;;;;;;;;5036176;28;20056;-80
2022/12/11 10:58:50;;;;;;;27.75;13.48;;;;;;;;;;5051686;28;20056;-80
2022/12/11 11:01:20;;;;;;;42.13;18.10;;;;;;;;;;5052093;28;20448;-82
2022/12/11 11:04:12;;;;;;;29.75;12.75;;;;;;;;;;5051500;28;20350;-81
2022/12/11 11:06:39;;;;;;;27.70;12.48;;;;;;;;;;5069155;28;20496;-81
2022/12/11 11:09:24;;;;;;;46.35;17.83;;;;;;;;;;5060289;28;20072;-81
2022/12/11 11:11:50;;;;;;;45.17;18.00;;;;;;;;;;5047879;28;20080;-80
2022/12/11 11:14:19;;;;;;;41.38;16.92;;;;;;;;;;5051495;28;20163;-80
2022/12/11 11:16:46;;;;;;;33.38;13.82;;;;;;;;;;5040681;28;20132;-80
2022/12/11 11:19:19;;;;;;;47.90;19.10;;;;;;;;;;5062866;28;20059;-81
2022/12/11 11:21:47;;;;;;;33.88;13.27;;;;;;;;;;5064399;28;20283;-78
2022/12/11 11:24:22;;;;;;;38.45;15.57;;;;;;;;;;5038978;28;20049;-80
2022/12/11 11:26:48;;;;;;;37.13;14.73;;;;;;;;;;5051610;28;20144;-81
2022/12/11 11:29:36;;;;;;;32.00;13.57;;;;;;;;;;5048102;28;20709;-81
2022/12/11 11:32:23;;;;;;;33.90;14.10;;;;;;;;;;5046968;28;20045;-78
2022/12/11 11:34:49;;;;;;;30.25;12.57;;;;;;;;;;5031833;28;20490;-78
2022/12/11 11:37:42;;;;;;;25.55;11.75;;;;;;;;;;5047102;28;20068;-77
2022/12/11 11:40:31;;;;;;;27.60;11.38;;;;;;;;;;5016899;28;20053;-81
2022/12/11 11:43:05;;;;;;;27.67;11.20;;;;;;;;;;5039159;28;20067;-81
2022/12/11 11:45:36;;;;;;;32.83;13.68;;;;;;;;;;5047999;28;20130;-78
2022/12/11 11:48:21;;;;;;;26.90;12.27;;;;;;;;;;5050764;28;20055;-81
2022/12/11 11:50:53;;;;;;;25.88;11.73;;;;;;;;;;5047451;28;20049;-80
2022/12/11 11:53:25;;;;;;;27.02;11.75;;;;;;;;;;5035035;28;20052;-80
2022/12/11 11:56:04;;;;;;;29.55;13.25;;;;;;;;;;5051211;28;20590;-80
2022/12/11 11:58:39;;;;;;;25.80;11.68;;;;;;;;;;5050399;28;20056;-80
2022/12/11 12:01:11;;;;;;;39.50;15.02;;;;;;;;;;5050027;28;20060;-78
2022/12/11 12:03:38;;;;;;;30.38;13.40;;;;;;;;;;5049223;28;20074;-81
2022/12/11 12:06:36;;;;;;;38.80;15.10;;;;;;;;;;5057492;28;20125;-80
2022/12/11 12:09:19;;;;;;;27.92;12.40;;;;;;;;;;5017950;28;20501;-80
2022/12/11 12:11:51;;;;;;;26.85;12.18;;;;;;;;;;5052742;28;20072;-77
2022/12/11 12:14:21;;;;;;;25.85;11.63;;;;;;;;;;5050339;28;20053;-82
2022/12/11 12:17:08;;;;;;;26.10;11.57;;;;;;;;;;5062133;28;20052;-82
2022/12/11 12:19:37;;;;;;;23.38;10.43;;;;;;;;;;5051943;28;20061;-80
2022/12/11 12:22:08;;;;;;;27.17;10.95;;;;;;;;;;5042819;28;20045;-81
2022/12/11 12:24:53;;;;;;;26.60;12.38;;;;;;;;;;5049551;28;20352;-81
2022/12/11 12:27:30;;;;;;;27.58;12.40;;;;;;;;;;5049246;28;20128;-78
2022/12/11 12:30:17;;;;;;;21.23;10.70;;;;;;;;;;5047900;28;20398;-81
2022/12/11 12:32:48;;;;;;;23.23;9.82;;;;;;;;;;5050346;28;20082;-81
2022/12/11 12:35:23;;;;;;;26.48;11.45;;;;;;;;;;5048317;28;20790;-80
2022/12/11 12:37:49;;;;;;;25.58;10.90;;;;;;;;;;5050677;28;20214;-81
2022/12/11 12:40:38;;;;;;;25.92;11.50;;;;;;;;;;5049389;28;20049;-81
2022/12/11 12:43:16;;;;;;;26.65;12.32;;;;;;;;;;5044047;28;20568;-80
2022/12/11 12:46:04;;;;;;;28.88;12.50;;;;;;;;;;5043310;28;20507;-81
2022/12/11 12:48:31;;;;;;;29.55;13.10;;;;;;;;;;5041019;28;20073;-80
2022/12/11 12:50:58;;;;;;;31.08;13.43;;;;;;;;;;5055183;28;20057;-79
2022/12/11 12:53:27;;;;;;;34.85;14.35;;;;;;;;;;5056989;28;20053;-79
2022/12/11 12:55:53;;;;;;;33.17;13.90;;;;;;;;;;5048397;28;20064;-80
2022/12/11 12:58:26;;;;;;;32.63;13.85;;;;;;;;;;5056080;28;20052;-79
2022/12/11 13:00:52;;;;;;;25.08;11.55;;;;;;;;;;5057224;28;20053;-80
2022/12/11 13:03:28;;;;;;;19.05;9.30;;;;;;;;;;5058075;28;20406;-80
2022/12/11 13:06:01;;;;;;;26.05;11.00;;;;;;;;;;5047389;28;20059;-79
2022/12/11 13:08:31;;;;;;;27.58;11.40;;;;;;;;;;5057021;28;20044;-80
2022/12/11 13:11:04;;;;;;;25.27;11.20;;;;;;;;;;5052678;28;20541;-80
2022/12/11 13:13:32;;;;;;;25.80;11.07;;;;;;;;;;5048431;28;20417;-80
2022/12/11 13:16:23;;;;;;;27.88;11.52;;;;;;;;;;5065063;28;20064;-79
2022/12/11 13:18:50;;;;;;;28.15;12.60;;;;;;;;;;5070195;28;20032;-79
2022/12/11 13:21:25;;;;;;;29.55;11.98;;;;;;;;;;5061429;28;20052;-80
2022/12/11 13:23:52;;;;;;;28.38;11.85;;;;;;;;;;5064176;28;20045;-78
2022/12/11 13:26:29;;;;;;;29.25;10.85;;;;;;;;;;5065946;28;20040;-79
2022/12/11 13:28:57;;;;;;;32.25;12.30;;;;;;;;;;5071354;28;20087;-79
2022/12/11 13:31:32;;;;;;;34.83;13.20;;;;;;;;;;5048461;28;20053;-79
2022/12/11 13:33:58;;;;;;;;;;;;;;;;;;5059656;28;20052;-79
2022/12/11 13:36:30;;;;;;;26.05;10.90;;;;;;;;;;5061154;28;19921;-80
2022/12/11 13:39:16;;;;;;;28.67;12.05;;;;;;;;;;5058750;28;20466;-80
2022/12/11 13:41:44;;;;;;;28.75;10.90;;;;;;;;;;5042914;28;20625;-79
2022/12/11 13:44:16;;;;;;;28.60;11.57;;;;;;;;;;5046427;28;20429;-78
2022/12/11 13:46:43;;;;;;;30.15;12.40;;;;;;;;;;5059581;28;20251;-79
2022/12/11 13:49:17;;;;;;;26.63;11.43;;;;;;;;;;5047883;28;20044;-80
2022/12/11 13:51:50;;;;;;;26.55;11.95;;;;;;;;;;5058796;28;20524;-79
2022/12/11 13:54:17;;;;;;;32.08;13.10;;;;;;;;;;5058395;28;20061;-77
2022/12/11 13:56:58;;;;;;;35.55;13.13;;;;;;;;;;5047412;28;20053;-79
2022/12/11 13:59:29;;;;;;;36.53;13.98;;;;;;;;;;5052095;28;20302;-79
2022/12/11 14:01:57;;;;;;;31.35;13.80;;;;;;;;;;5065437;28;20056;-79
2022/12/11 14:04:24;;;;;;;41.17;15.52;;;;;;;;;;5077378;28;20511;-79
2022/12/11 14:06:51;;;;;;;44.22;16.83;;;;;;;;;;5060136;28;20052;-79
2022/12/11 14:09:19;;;;;;;36.42;15.30;;;;;;;;;;5052523;28;20456;-79
2022/12/11 14:11:45;;;;;;;39.92;15.55;;;;;;;;;;5048985;28;20052;-76
2022/12/11 14:14:22;;;;;;;38.53;14.27;;;;;;;;;;5053317;28;20143;-79
2022/12/11 14:16:50;;;;;;;37.78;15.00;;;;;;;;;;5049414;28;20053;-79
2022/12/11 14:19:18;;;;;;;38.25;14.35;;;;;;;;;;5058400;28;20520;-79
2022/12/11 14:21:59;;;;;;;35.75;14.90;;;;;;;;;;5050061;28;20397;-79
2022/12/11 14:24:26;;;;;;;37.65;15.60;;;;;;;;;;5053902;28;20053;-79
2022/12/11 14:26:53;;;;;;;40.67;15.88;;;;;;;;;;5042993;28;20252;-79
2022/12/11 14:29:37;;;;;;;41.80;15.88;;;;;;;;;;5056089;28;20308;-79
2022/12/11 14:32:05;;;;;;;39.33;16.23;;;;;;;;;;5040914;28;20053;-80
2022/12/11 14:34:32;;;;;;;38.58;15.55;;;;;;;;;;5055043;28;20141;-79
2022/12/11 14:36:59;;;;;;;30.48;12.60;;;;;;;;;;5071031;28;20059;-79
2022/12/11 14:39:27;;;;;;;38.70;15.05;;;;;;;;;;5053536;28;20239;-79
2022/12/11 14:41:54;;;;;;;36.47;14.45;;;;;;;;;;5049772;28;20045;-80